sensor_id;sensor_type;location;lat;lon;timestamp;temperature;humidity
40287;DHT22;25998;46.604;13.610;2022-10-17T00:02:45;12.30;99.90
40287;DHT22;25998;46.604;13.610;2022-10-17T00:05:56;12.30;99.90
40287;DHT22;25998;46.604;13.610;2022-10-17T00:09:07;12.40;99.90
40287;DHT22;25998;46.604;13.610;2022-10-17T00:12:19;12.30;99.90
40287;DHT22;25998;46.604;13.610;2022-10-17T00:15:30;12.20;99.90
40287;DHT22;25998;46.604;13.610;2022-10-17T00:18:41;12.30;99.90
40287;DHT22;25998;46.604;13.610;2022-10-17T00:21:52;12.40;99.90
40287;DHT22;25998;46.604;13.610;2022-10-17T00:25:03;12.30;99.90
40287;DHT22;25998;46.604;13.610;2022-10-17T00:28:14;12.20;99.90
40287;DHT22;25998;46.604;13.610;2022-10-17T00:31:26;12.10;99.90
40287;DHT22;25998;46.604;13.610;2022-10-17T00:34:36;12.00;99.90
40287;DHT22;25998;46.604;13.610;2022-10-17T00:37:47;12.10;99.90
40287;DHT22;25998;46.604;13.610;2022-10-17T00:40:58;12.10;99.90
40287;DHT22;25998;46.604;13.610;2022-10-17T00:47:42;12.10;99.90
40287;DHT22;25998;46.604;13.610;2022-10-17T00:50:54;12.00;99.90
40287;DHT22;25998;46.604;13.610;2022-10-17T00:54:05;12.00;99.90
40287;DHT22;25998;46.604;13.610;2022-10-17T00:57:17;12.00;99.90
40287;DHT22;25998;46.604;13.610;2022-10-17T01:00:28;11.90;99.90
40287;DHT22;25998;46.604;13.610;2022-10-17T01:03:38;11.90;99.90
40287;DHT22;25998;46.604;13.610;2022-10-17T01:06:49;12.00;99.90
40287;DHT22;25998;46.604;13.610;2022-10-17T01:10:01;12.10;99.90
40287;DHT22;25998;46.604;13.610;2022-10-17T01:13:25;12.10;99.90
40287;DHT22;25998;46.604;13.610;2022-10-17T01:27:55;11.90;99.90
40287;DHT22;25998;46.604;13.610;2022-10-17T01:31:22;12.00;99.90
40287;DHT22;25998;46.604;13.610;2022-10-17T01:34:41;11.90;99.90
40287;DHT22;25998;46.604;13.610;2022-10-17T01:38:17;11.80;99.90
40287;DHT22;25998;46.604;13.610;2022-10-17T01:41:47;11.60;99.90
40287;DHT22;25998;46.604;13.610;2022-10-17T01:45:08;11.60;99.90
40287;DHT22;25998;46.604;13.610;2022-10-17T01:48:24;11.60;99.90
40287;DHT22;25998;46.604;13.610;2022-10-17T01:51:41;11.60;99.90
40287;DHT22;25998;46.604;13.610;2022-10-17T01:55:03;11.60;99.90
40287;DHT22;25998;46.604;13.610;2022-10-17T01:58:37;11.50;99.90
40287;DHT22;25998;46.604;13.610;2022-10-17T02:01:53;11.50;99.90
40287;DHT22;25998;46.604;13.610;2022-10-17T02:05:05;11.50;99.90
40287;DHT22;25998;46.604;13.610;2022-10-17T02:08:41;11.70;99.90
40287;DHT22;25998;46.604;13.610;2022-10-17T02:19:06;11.50;99.90
40287;DHT22;25998;46.604;13.610;2022-10-17T02:32:36;11.40;99.90
40287;DHT22;25998;46.604;13.610;2022-10-17T02:35:52;11.40;99.90
40287;DHT22;25998;46.604;13.610;2022-10-17T02:39:04;11.40;99.90
40287;DHT22;25998;46.604;13.610;2022-10-17T02:42:16;11.30;99.90
40287;DHT22;25998;46.604;13.610;2022-10-17T02:45:29;11.30;99.90
40287;DHT22;25998;46.604;13.610;2022-10-17T02:48:51;11.20;99.90
40287;DHT22;25998;46.604;13.610;2022-10-17T02:52:15;11.30;99.90
40287;DHT22;25998;46.604;13.610;2022-10-17T02:55:31;11.30;99.90
40287;DHT22;25998;46.604;13.610;2022-10-17T02:58:46;11.40;99.90
40287;DHT22;25998;46.604;13.610;2022-10-17T03:02:04;11.70;99.90
40287;DHT22;25998;46.604;13.610;2022-10-17T03:05:21;11.80;99.90
40287;DHT22;25998;46.604;13.610;2022-10-17T03:08:32;11.80;99.90
40287;DHT22;25998;46.604;13.610;2022-10-17T03:11:42;11.70;99.90
40287;DHT22;25998;46.604;13.610;2022-10-17T03:14:53;11.80;99.90
40287;DHT22;25998;46.604;13.610;2022-10-17T03:18:04;11.90;99.90
40287;DHT22;25998;46.604;13.610;2022-10-17T03:21:15;11.80;99.90
40287;DHT22;25998;46.604;13.610;2022-10-17T03:24:26;11.60;99.90
40287;DHT22;25998;46.604;13.610;2022-10-17T03:27:37;11.50;99.90
40287;DHT22;25998;46.604;13.610;2022-10-17T03:30:48;11.40;99.90
40287;DHT22;25998;46.604;13.610;2022-10-17T03:34:00;11.30;99.90
40287;DHT22;25998;46.604;13.610;2022-10-17T03:37:11;11.50;99.90
40287;DHT22;25998;46.604;13.610;2022-10-17T03:40:22;11.40;99.90
40287;DHT22;25998;46.604;13.610;2022-10-17T03:43:33;11.30;99.90
40287;DHT22;25998;46.604;13.610;2022-10-17T03:46:43;11.20;99.90
40287;DHT22;25998;46.604;13.610;2022-10-17T03:49:54;11.10;99.90
40287;DHT22;25998;46.604;13.610;2022-10-17T03:53:05;11.10;99.90
40287;DHT22;25998;46.604;13.610;2022-10-17T03:56:22;11.10;99.90
40287;DHT22;25998;46.604;13.610;2022-10-17T03:59:33;11.20;99.90
40287;DHT22;25998;46.604;13.610;2022-10-17T04:02:43;11.50;99.90
40287;DHT22;25998;46.604;13.610;2022-10-17T04:05:58;11.60;99.90
40287;DHT22;25998;46.604;13.610;2022-10-17T04:09:09;11.60;99.90
40287;DHT22;25998;46.604;13.610;2022-10-17T04:12:20;11.50;99.90
40287;DHT22;25998;46.604;13.610;2022-10-17T04:15:31;11.40;99.90
40287;DHT22;25998;46.604;13.610;2022-10-17T04:18:42;11.40;99.90
40287;DHT22;25998;46.604;13.610;2022-10-17T04:21:53;11.20;99.90
40287;DHT22;25998;46.604;13.610;2022-10-17T04:25:04;11.20;99.90
40287;DHT22;25998;46.604;13.610;2022-10-17T04:28:15;11.10;99.90
40287;DHT22;25998;46.604;13.610;2022-10-17T04:31:26;11.00;99.90
40287;DHT22;25998;46.604;13.610;2022-10-17T04:34:37;10.90;99.90
40287;DHT22;25998;46.604;13.610;2022-10-17T04:37:47;11.00;99.90
40287;DHT22;25998;46.604;13.610;2022-10-17T04:41:00;11.00;99.90
40287;DHT22;25998;46.604;13.610;2022-10-17T04:44:13;11.00;99.90
40287;DHT22;25998;46.604;13.610;2022-10-17T04:47:24;11.20;99.90
40287;DHT22;25998;46.604;13.610;2022-10-17T04:50:35;11.30;99.90
40287;DHT22;25998;46.604;13.610;2022-10-17T04:53:46;11.30;99.90
40287;DHT22;25998;46.604;13.610;2022-10-17T04:56:57;11.40;99.90
40287;DHT22;25998;46.604;13.610;2022-10-17T05:00:08;11.60;99.90
40287;DHT22;25998;46.604;13.610;2022-10-17T05:03:19;11.30;99.90
40287;DHT22;25998;46.604;13.610;2022-10-17T05:06:30;11.10;99.90
40287;DHT22;25998;46.604;13.610;2022-10-17T05:09:42;11.00;99.90
40287;DHT22;25998;46.604;13.610;2022-10-17T05:12:53;10.90;99.90
40287;DHT22;25998;46.604;13.610;2022-10-17T05:16:03;10.90;99.90
40287;DHT22;25998;46.604;13.610;2022-10-17T05:19:14;10.80;99.90
40287;DHT22;25998;46.604;13.610;2022-10-17T05:22:26;10.80;99.90
40287;DHT22;25998;46.604;13.610;2022-10-17T05:25:37;10.80;99.90
40287;DHT22;25998;46.604;13.610;2022-10-17T05:28:48;10.80;99.90
40287;DHT22;25998;46.604;13.610;2022-10-17T05:31:59;10.80;99.90
40287;DHT22;25998;46.604;13.610;2022-10-17T05:35:10;11.10;99.90
40287;DHT22;25998;46.604;13.610;2022-10-17T05:38:21;11.30;99.90
40287;DHT22;25998;46.604;13.610;2022-10-17T05:41:31;11.20;99.90
40287;DHT22;25998;46.604;13.610;2022-10-17T05:44:42;11.20;99.90
40287;DHT22;25998;46.604;13.610;2022-10-17T05:47:53;11.30;99.90
40287;DHT22;25998;46.604;13.610;2022-10-17T05:51:07;11.50;99.90
40287;DHT22;25998;46.604;13.610;2022-10-17T05:54:18;11.70;99.90
40287;DHT22;25998;46.604;13.610;2022-10-17T05:57:29;11.60;99.90
40287;DHT22;25998;46.604;13.610;2022-10-17T06:00:40;11.30;99.90
40287;DHT22;25998;46.604;13.610;2022-10-17T06:03:51;11.40;99.90
40287;DHT22;25998;46.604;13.610;2022-10-17T06:07:02;11.30;99.90
40287;DHT22;25998;46.604;13.610;2022-10-17T06:10:13;11.30;99.90
40287;DHT22;25998;46.604;13.610;2022-10-17T06:13:26;11.20;99.90
40287;DHT22;25998;46.604;13.610;2022-10-17T06:16:37;11.10;99.90
40287;DHT22;25998;46.604;13.610;2022-10-17T06:19:48;11.10;99.90
40287;DHT22;25998;46.604;13.610;2022-10-17T06:22:59;11.10;99.90
40287;DHT22;25998;46.604;13.610;2022-10-17T06:26:10;11.00;99.90
40287;DHT22;25998;46.604;13.610;2022-10-17T06:29:20;11.00;99.90
40287;DHT22;25998;46.604;13.610;2022-10-17T06:32:32;11.30;99.90
40287;DHT22;25998;46.604;13.610;2022-10-17T06:35:43;11.40;99.90
40287;DHT22;25998;46.604;13.610;2022-10-17T06:38:53;11.40;99.90
40287;DHT22;25998;46.604;13.610;2022-10-17T06:42:04;11.50;99.90
40287;DHT22;25998;46.604;13.610;2022-10-17T06:45:15;11.60;99.90
40287;DHT22;25998;46.604;13.610;2022-10-17T06:48:26;11.70;99.90
40287;DHT22;25998;46.604;13.610;2022-10-17T06:51:37;11.60;99.90
40287;DHT22;25998;46.604;13.610;2022-10-17T06:54:47;11.80;99.90
40287;DHT22;25998;46.604;13.610;2022-10-17T06:57:58;11.60;99.90
40287;DHT22;25998;46.604;13.610;2022-10-17T07:01:11;11.50;99.90
40287;DHT22;25998;46.604;13.610;2022-10-17T07:04:22;11.40;99.90
40287;DHT22;25998;46.604;13.610;2022-10-17T07:07:33;11.60;99.90
40287;DHT22;25998;46.604;13.610;2022-10-17T07:10:44;11.60;99.90
40287;DHT22;25998;46.604;13.610;2022-10-17T07:13:54;11.80;99.90
40287;DHT22;25998;46.604;13.610;2022-10-17T07:17:05;11.90;99.90
40287;DHT22;25998;46.604;13.610;2022-10-17T07:20:16;12.20;99.90
40287;DHT22;25998;46.604;13.610;2022-10-17T07:23:27;12.20;99.90
40287;DHT22;25998;46.604;13.610;2022-10-17T07:26:38;12.30;99.90
40287;DHT22;25998;46.604;13.610;2022-10-17T07:29:48;12.40;99.90
40287;DHT22;25998;46.604;13.610;2022-10-17T07:32:59;12.30;99.90
40287;DHT22;25998;46.604;13.610;2022-10-17T07:36:11;12.40;99.90
40287;DHT22;25998;46.604;13.610;2022-10-17T07:39:22;12.20;99.90
40287;DHT22;25998;46.604;13.610;2022-10-17T07:42:35;12.20;99.90
40287;DHT22;25998;46.604;13.610;2022-10-17T07:45:47;12.20;99.90
40287;DHT22;25998;46.604;13.610;2022-10-17T07:48:57;12.40;99.90
40287;DHT22;25998;46.604;13.610;2022-10-17T07:52:13;12.40;99.90
40287;DHT22;25998;46.604;13.610;2022-10-17T07:55:24;12.60;99.90
40287;DHT22;25998;46.604;13.610;2022-10-17T07:58:36;13.20;99.90
40287;DHT22;25998;46.604;13.610;2022-10-17T08:01:47;14.00;99.90
40287;DHT22;25998;46.604;13.610;2022-10-17T08:04:58;14.60;99.90
40287;DHT22;25998;46.604;13.610;2022-10-17T08:08:09;15.20;99.90
40287;DHT22;25998;46.604;13.610;2022-10-17T08:11:20;15.60;99.90
40287;DHT22;25998;46.604;13.610;2022-10-17T08:14:32;16.00;99.90
40287;DHT22;25998;46.604;13.610;2022-10-17T08:17:43;16.50;99.90
40287;DHT22;25998;46.604;13.610;2022-10-17T08:20:54;16.60;99.90
40287;DHT22;25998;46.604;13.610;2022-10-17T08:24:05;17.00;99.90
40287;DHT22;25998;46.604;13.610;2022-10-17T08:27:16;17.60;99.90
40287;DHT22;25998;46.604;13.610;2022-10-17T08:30:33;17.70;99.90
40287;DHT22;25998;46.604;13.610;2022-10-17T08:33:44;17.70;99.90
40287;DHT22;25998;46.604;13.610;2022-10-17T08:36:55;17.90;99.90
40287;DHT22;25998;46.604;13.610;2022-10-17T08:40:06;18.00;99.90
40287;DHT22;25998;46.604;13.610;2022-10-17T08:43:55;18.20;99.90
40287;DHT22;25998;46.604;13.610;2022-10-17T08:47:05;18.40;99.90
40287;DHT22;25998;46.604;13.610;2022-10-17T08:50:35;18.60;99.90
40287;DHT22;25998;46.604;13.610;2022-10-17T08:56:57;18.60;99.90
40287;DHT22;25998;46.604;13.610;2022-10-17T09:00:17;18.70;99.90
40287;DHT22;25998;46.604;13.610;2022-10-17T09:04:13;18.70;99.90
40287;DHT22;25998;46.604;13.610;2022-10-17T09:07:49;18.50;99.90
40287;DHT22;25998;46.604;13.610;2022-10-17T09:21:22;19.10;99.90
40287;DHT22;25998;46.604;13.610;2022-10-17T09:28:09;19.50;99.90
40287;DHT22;25998;46.604;13.610;2022-10-17T09:31:29;19.60;99.90
40287;DHT22;25998;46.604;13.610;2022-10-17T09:34:42;19.60;99.40
40287;DHT22;25998;46.604;13.610;2022-10-17T09:37:53;19.70;99.20
40287;DHT22;25998;46.604;13.610;2022-10-17T09:41:10;20.00;98.40
40287;DHT22;25998;46.604;13.610;2022-10-17T09:44:29;20.10;99.00
40287;DHT22;25998;46.604;13.610;2022-10-17T09:51:05;20.30;97.90
40287;DHT22;25998;46.604;13.610;2022-10-17T09:54:25;20.00;98.90
40287;DHT22;25998;46.604;13.610;2022-10-17T10:01:23;20.00;97.80
40287;DHT22;25998;46.604;13.610;2022-10-17T10:04:33;20.10;97.80
40287;DHT22;25998;46.604;13.610;2022-10-17T10:09:02;20.40;98.10
40287;DHT22;25998;46.604;13.610;2022-10-17T10:11:50;20.30;97.90
40287;DHT22;25998;46.604;13.610;2022-10-17T10:15:04;20.30;98.10
40287;DHT22;25998;46.604;13.610;2022-10-17T10:18:35;20.40;97.60
40287;DHT22;25998;46.604;13.610;2022-10-17T10:21:55;20.60;97.40
40287;DHT22;25998;46.604;13.610;2022-10-17T10:25:16;20.60;97.40
40287;DHT22;25998;46.604;13.610;2022-10-17T10:28:37;20.40;98.30
40287;DHT22;25998;46.604;13.610;2022-10-17T10:31:49;20.30;98.90
40287;DHT22;25998;46.604;13.610;2022-10-17T10:35:23;20.30;98.20
40287;DHT22;25998;46.604;13.610;2022-10-17T10:38:38;20.30;99.60
40287;DHT22;25998;46.604;13.610;2022-10-17T10:41:50;20.60;97.80
40287;DHT22;25998;46.604;13.610;2022-10-17T10:45:27;20.60;97.50
40287;DHT22;25998;46.604;13.610;2022-10-17T10:48:58;20.70;97.50
40287;DHT22;25998;46.604;13.610;2022-10-17T10:52:36;20.80;97.30
40287;DHT22;25998;46.604;13.610;2022-10-17T10:55:59;21.10;97.60
40287;DHT22;25998;46.604;13.610;2022-10-17T10:59:21;21.40;97.60
40287;DHT22;25998;46.604;13.610;2022-10-17T11:06:35;21.50;96.30
40287;DHT22;25998;46.604;13.610;2022-10-17T11:10:20;21.80;96.90
40287;DHT22;25998;46.604;13.610;2022-10-17T11:14:08;22.10;96.70
40287;DHT22;25998;46.604;13.610;2022-10-17T11:17:39;22.10;96.20
40287;DHT22;25998;46.604;13.610;2022-10-17T11:21:14;21.90;96.10
40287;DHT22;25998;46.604;13.610;2022-10-17T11:24:37;22.00;97.10
40287;DHT22;25998;46.604;13.610;2022-10-17T11:27:50;22.10;96.40
40287;DHT22;25998;46.604;13.610;2022-10-17T11:31:04;21.90;95.80
40287;DHT22;25998;46.604;13.610;2022-10-17T11:34:26;21.90;96.60
40287;DHT22;25998;46.604;13.610;2022-10-17T11:37:41;21.80;96.30
40287;DHT22;25998;46.604;13.610;2022-10-17T11:40:57;22.00;95.90
40287;DHT22;25998;46.604;13.610;2022-10-17T11:44:26;22.10;96.10
40287;DHT22;25998;46.604;13.610;2022-10-17T11:51:48;22.20;95.50
40287;DHT22;25998;46.604;13.610;2022-10-17T11:55:07;21.60;96.10
40287;DHT22;25998;46.604;13.610;2022-10-17T11:58:44;21.60;96.50
40287;DHT22;25998;46.604;13.610;2022-10-17T12:02:10;21.50;96.70
40287;DHT22;25998;46.604;13.610;2022-10-17T12:05:42;21.30;96.50
40287;DHT22;25998;46.604;13.610;2022-10-17T12:09:03;21.30;96.80
40287;DHT22;25998;46.604;13.610;2022-10-17T12:12:27;21.40;96.30
40287;DHT22;25998;46.604;13.610;2022-10-17T12:15:38;21.20;97.30
40287;DHT22;25998;46.604;13.610;2022-10-17T12:19:24;21.30;97.20
40287;DHT22;25998;46.604;13.610;2022-10-17T12:22:36;21.30;96.90
40287;DHT22;25998;46.604;13.610;2022-10-17T12:26:04;21.10;97.00
40287;DHT22;25998;46.604;13.610;2022-10-17T12:29:27;21.10;96.70
40287;DHT22;25998;46.604;13.610;2022-10-17T12:32:55;21.00;97.10
40287;DHT22;25998;46.604;13.610;2022-10-17T12:42:50;21.20;97.10
40287;DHT22;25998;46.604;13.610;2022-10-17T12:46:02;21.20;97.10
40287;DHT22;25998;46.604;13.610;2022-10-17T12:49:42;21.20;96.70
40287;DHT22;25998;46.604;13.610;2022-10-17T12:53:00;21.20;97.20
40287;DHT22;25998;46.604;13.610;2022-10-17T12:56:16;21.10;96.70
40287;DHT22;25998;46.604;13.610;2022-10-17T12:59:28;21.10;96.80
40287;DHT22;25998;46.604;13.610;2022-10-17T13:02:39;21.10;96.60
40287;DHT22;25998;46.604;13.610;2022-10-17T13:05:53;21.10;96.40
40287;DHT22;25998;46.604;13.610;2022-10-17T13:09:14;21.20;96.60
40287;DHT22;25998;46.604;13.610;2022-10-17T13:12:27;21.30;96.70
40287;DHT22;25998;46.604;13.610;2022-10-17T13:15:38;21.20;96.60
40287;DHT22;25998;46.604;13.610;2022-10-17T13:18:51;21.10;97.20
40287;DHT22;25998;46.604;13.610;2022-10-17T13:22:03;21.00;97.80
40287;DHT22;25998;46.604;13.610;2022-10-17T13:25:21;20.90;97.10
40287;DHT22;25998;46.604;13.610;2022-10-17T13:28:32;20.90;97.20
40287;DHT22;25998;46.604;13.610;2022-10-17T13:31:44;21.00;97.20
40287;DHT22;25998;46.604;13.610;2022-10-17T13:38:26;21.20;97.60
40287;DHT22;25998;46.604;13.610;2022-10-17T13:41:39;21.20;97.70
40287;DHT22;25998;46.604;13.610;2022-10-17T13:44:51;21.20;97.20
40287;DHT22;25998;46.604;13.610;2022-10-17T13:48:05;21.20;97.50
40287;DHT22;25998;46.604;13.610;2022-10-17T13:51:16;21.20;97.30
40287;DHT22;25998;46.604;13.610;2022-10-17T13:54:41;21.20;96.60
40287;DHT22;25998;46.604;13.610;2022-10-17T13:57:52;21.20;97.10
40287;DHT22;25998;46.604;13.610;2022-10-17T14:01:03;21.20;96.90
40287;DHT22;25998;46.604;13.610;2022-10-17T14:04:15;21.20;96.80
40287;DHT22;25998;46.604;13.610;2022-10-17T14:07:34;21.30;96.60
40287;DHT22;25998;46.604;13.610;2022-10-17T14:10:45;21.40;96.60
40287;DHT22;25998;46.604;13.610;2022-10-17T14:13:57;21.30;96.50
40287;DHT22;25998;46.604;13.610;2022-10-17T14:17:31;21.30;96.20
40287;DHT22;25998;46.604;13.610;2022-10-17T14:20:45;21.40;96.70
40287;DHT22;25998;46.604;13.610;2022-10-17T14:24:35;21.50;96.60
40287;DHT22;25998;46.604;13.610;2022-10-17T14:27:59;21.50;96.70
40287;DHT22;25998;46.604;13.610;2022-10-17T14:31:22;21.50;96.70
40287;DHT22;25998;46.604;13.610;2022-10-17T14:34:37;21.40;96.70
40287;DHT22;25998;46.604;13.610;2022-10-17T14:37:51;21.20;96.50
40287;DHT22;25998;46.604;13.610;2022-10-17T14:41:09;21.20;97.00
40287;DHT22;25998;46.604;13.610;2022-10-17T14:44:30;21.10;97.00
40287;DHT22;25998;46.604;13.610;2022-10-17T14:47:42;20.90;96.70
40287;DHT22;25998;46.604;13.610;2022-10-17T14:51:16;20.90;97.10
40287;DHT22;25998;46.604;13.610;2022-10-17T14:54:27;20.90;96.90
40287;DHT22;25998;46.604;13.610;2022-10-17T14:57:44;20.70;98.30
40287;DHT22;25998;46.604;13.610;2022-10-17T15:00:56;20.50;98.80
40287;DHT22;25998;46.604;13.610;2022-10-17T15:04:07;20.20;99.10
40287;DHT22;25998;46.604;13.610;2022-10-17T15:07:20;20.00;99.40
40287;DHT22;25998;46.604;13.610;2022-10-17T15:10:35;19.90;99.60
40287;DHT22;25998;46.604;13.610;2022-10-17T15:13:47;19.80;99.80
40287;DHT22;25998;46.604;13.610;2022-10-17T15:16:58;19.60;99.90
40287;DHT22;25998;46.604;13.610;2022-10-17T15:20:14;19.50;99.90
40287;DHT22;25998;46.604;13.610;2022-10-17T15:23:25;19.20;99.90
40287;DHT22;25998;46.604;13.610;2022-10-17T15:26:37;19.10;99.90
40287;DHT22;25998;46.604;13.610;2022-10-17T15:29:48;19.00;99.90
40287;DHT22;25998;46.604;13.610;2022-10-17T15:32:59;18.90;99.90
40287;DHT22;25998;46.604;13.610;2022-10-17T15:36:26;18.80;99.90
40287;DHT22;25998;46.604;13.610;2022-10-17T15:39:37;18.70;99.90
40287;DHT22;25998;46.604;13.610;2022-10-17T15:42:49;18.50;99.90
40287;DHT22;25998;46.604;13.610;2022-10-17T15:46:00;18.40;99.90
40287;DHT22;25998;46.604;13.610;2022-10-17T15:49:16;18.40;99.90
40287;DHT22;25998;46.604;13.610;2022-10-17T15:52:27;18.30;99.90
40287;DHT22;25998;46.604;13.610;2022-10-17T15:55:38;18.20;99.90
40287;DHT22;25998;46.604;13.610;2022-10-17T15:58:50;17.90;99.90
40287;DHT22;25998;46.604;13.610;2022-10-17T16:02:01;17.80;99.90
40287;DHT22;25998;46.604;13.610;2022-10-17T16:05:20;17.50;99.90
40287;DHT22;25998;46.604;13.610;2022-10-17T16:08:38;17.50;99.90
40287;DHT22;25998;46.604;13.610;2022-10-17T16:11:49;17.50;99.90
40287;DHT22;25998;46.604;13.610;2022-10-17T16:15:00;17.40;99.90
40287;DHT22;25998;46.604;13.610;2022-10-17T16:18:12;17.20;99.90
40287;DHT22;25998;46.604;13.610;2022-10-17T16:21:28;17.20;99.90
40287;DHT22;25998;46.604;13.610;2022-10-17T16:24:39;17.20;99.90
40287;DHT22;25998;46.604;13.610;2022-10-17T16:27:52;17.20;99.90
40287;DHT22;25998;46.604;13.610;2022-10-17T16:31:03;17.10;99.90
40287;DHT22;25998;46.604;13.610;2022-10-17T16:34:15;17.00;99.90
40287;DHT22;25998;46.604;13.610;2022-10-17T16:37:26;16.90;99.90
40287;DHT22;25998;46.604;13.610;2022-10-17T16:40:37;16.70;99.90
40287;DHT22;25998;46.604;13.610;2022-10-17T16:43:50;16.60;99.90
40287;DHT22;25998;46.604;13.610;2022-10-17T16:47:01;16.60;99.90
40287;DHT22;25998;46.604;13.610;2022-10-17T16:50:12;16.50;99.90
40287;DHT22;25998;46.604;13.610;2022-10-17T16:53:23;16.40;99.90
40287;DHT22;25998;46.604;13.610;2022-10-17T16:56:34;16.30;99.90
40287;DHT22;25998;46.604;13.610;2022-10-17T16:59:45;16.30;99.90
40287;DHT22;25998;46.604;13.610;2022-10-17T17:02:56;16.10;99.90
40287;DHT22;25998;46.604;13.610;2022-10-17T17:06:08;15.90;99.90
40287;DHT22;25998;46.604;13.610;2022-10-17T17:09:22;15.90;99.90
40287;DHT22;25998;46.604;13.610;2022-10-17T17:12:34;16.00;99.90
40287;DHT22;25998;46.604;13.610;2022-10-17T17:15:45;15.90;99.90
40287;DHT22;25998;46.604;13.610;2022-10-17T17:18:59;15.80;99.90
40287;DHT22;25998;46.604;13.610;2022-10-17T17:22:10;15.90;99.90
40287;DHT22;25998;46.604;13.610;2022-10-17T17:25:21;15.90;99.90
40287;DHT22;25998;46.604;13.610;2022-10-17T17:28:33;15.90;99.90
40287;DHT22;25998;46.604;13.610;2022-10-17T17:31:44;15.80;99.90
40287;DHT22;25998;46.604;13.610;2022-10-17T17:34:55;15.70;99.90
40287;DHT22;25998;46.604;13.610;2022-10-17T17:38:06;15.70;99.90
40287;DHT22;25998;46.604;13.610;2022-10-17T17:41:18;15.70;99.90
40287;DHT22;25998;46.604;13.610;2022-10-17T17:44:29;15.60;99.90
40287;DHT22;25998;46.604;13.610;2022-10-17T17:47:41;15.50;99.90
40287;DHT22;25998;46.604;13.610;2022-10-17T17:50:52;15.50;99.90
40287;DHT22;25998;46.604;13.610;2022-10-17T17:54:03;15.40;99.90
40287;DHT22;25998;46.604;13.610;2022-10-17T17:57:14;15.40;99.90
40287;DHT22;25998;46.604;13.610;2022-10-17T18:00:25;15.40;99.90
40287;DHT22;25998;46.604;13.610;2022-10-17T18:03:39;15.50;99.90
40287;DHT22;25998;46.604;13.610;2022-10-17T18:06:50;15.50;99.90
40287;DHT22;25998;46.604;13.610;2022-10-17T18:10:01;15.50;99.90
40287;DHT22;25998;46.604;13.610;2022-10-17T18:13:12;15.50;99.90
40287;DHT22;25998;46.604;13.610;2022-10-17T18:16:24;15.50;99.90
40287;DHT22;25998;46.604;13.610;2022-10-17T18:19:36;15.40;99.90
40287;DHT22;25998;46.604;13.610;2022-10-17T18:22:46;15.30;99.90
40287;DHT22;25998;46.604;13.610;2022-10-17T18:25:59;15.10;99.90
40287;DHT22;25998;46.604;13.610;2022-10-17T18:29:10;15.10;99.90
40287;DHT22;25998;46.604;13.610;2022-10-17T18:32:22;15.10;99.90
40287;DHT22;25998;46.604;13.610;2022-10-17T18:35:33;15.10;99.90
40287;DHT22;25998;46.604;13.610;2022-10-17T18:38:44;15.00;99.90
40287;DHT22;25998;46.604;13.610;2022-10-17T18:41:56;15.00;99.90
40287;DHT22;25998;46.604;13.610;2022-10-17T18:45:07;15.00;99.90
40287;DHT22;25998;46.604;13.610;2022-10-17T18:48:20;14.90;99.90
40287;DHT22;25998;46.604;13.610;2022-10-17T18:51:31;14.90;99.90
40287;DHT22;25998;46.604;13.610;2022-10-17T18:54:42;14.90;99.90
40287;DHT22;25998;46.604;13.610;2022-10-17T18:57:53;14.90;99.90
40287;DHT22;25998;46.604;13.610;2022-10-17T19:01:07;14.80;99.90
40287;DHT22;25998;46.604;13.610;2022-10-17T19:04:19;14.70;99.90
40287;DHT22;25998;46.604;13.610;2022-10-17T19:07:31;14.60;99.90
40287;DHT22;25998;46.604;13.610;2022-10-17T19:10:42;14.60;99.90
40287;DHT22;25998;46.604;13.610;2022-10-17T19:13:55;14.70;99.90
40287;DHT22;25998;46.604;13.610;2022-10-17T19:17:07;14.80;99.90
40287;DHT22;25998;46.604;13.610;2022-10-17T19:20:18;14.50;99.90
40287;DHT22;25998;46.604;13.610;2022-10-17T19:23:29;14.50;99.90
40287;DHT22;25998;46.604;13.610;2022-10-17T19:26:42;14.50;99.90
40287;DHT22;25998;46.604;13.610;2022-10-17T19:29:52;14.40;99.90
40287;DHT22;25998;46.604;13.610;2022-10-17T19:33:03;14.20;99.90
40287;DHT22;25998;46.604;13.610;2022-10-17T19:36:14;14.10;99.90
40287;DHT22;25998;46.604;13.610;2022-10-17T19:39:25;14.00;99.90
40287;DHT22;25998;46.604;13.610;2022-10-17T19:42:36;13.90;99.90
40287;DHT22;25998;46.604;13.610;2022-10-17T19:45:57;13.90;99.90
40287;DHT22;25998;46.604;13.610;2022-10-17T19:49:09;13.90;99.90
40287;DHT22;25998;46.604;13.610;2022-10-17T19:52:22;13.80;99.90
40287;DHT22;25998;46.604;13.610;2022-10-17T19:55:33;13.80;99.90
40287;DHT22;25998;46.604;13.610;2022-10-17T19:58:44;13.70;99.90
40287;DHT22;25998;46.604;13.610;2022-10-17T20:01:56;13.70;99.90
40287;DHT22;25998;46.604;13.610;2022-10-17T20:05:07;13.70;99.90
40287;DHT22;25998;46.604;13.610;2022-10-17T20:08:22;13.60;99.90
40287;DHT22;25998;46.604;13.610;2022-10-17T20:11:33;13.60;99.90
40287;DHT22;25998;46.604;13.610;2022-10-17T20:14:44;13.60;99.90
40287;DHT22;25998;46.604;13.610;2022-10-17T20:17:54;13.60;99.90
40287;DHT22;25998;46.604;13.610;2022-10-17T20:21:09;13.50;99.90
40287;DHT22;25998;46.604;13.610;2022-10-17T20:24:20;13.40;99.90
40287;DHT22;25998;46.604;13.610;2022-10-17T20:27:31;13.40;99.90
40287;DHT22;25998;46.604;13.610;2022-10-17T20:30:44;13.40;99.90
40287;DHT22;25998;46.604;13.610;2022-10-17T20:33:57;13.50;99.90
40287;DHT22;25998;46.604;13.610;2022-10-17T20:37:08;13.40;99.90
40287;DHT22;25998;46.604;13.610;2022-10-17T20:40:19;13.40;99.90
40287;DHT22;25998;46.604;13.610;2022-10-17T20:43:30;13.40;99.90
40287;DHT22;25998;46.604;13.610;2022-10-17T20:46:41;13.40;99.90
40287;DHT22;25998;46.604;13.610;2022-10-17T20:49:52;13.40;99.90
40287;DHT22;25998;46.604;13.610;2022-10-17T20:53:03;13.40;99.90
40287;DHT22;25998;46.604;13.610;2022-10-17T20:56:23;13.30;99.90
40287;DHT22;25998;46.604;13.610;2022-10-17T20:59:34;13.20;99.90
40287;DHT22;25998;46.604;13.610;2022-10-17T21:02:46;13.20;99.90
40287;DHT22;25998;46.604;13.610;2022-10-17T21:05:57;13.10;99.90
40287;DHT22;25998;46.604;13.610;2022-10-17T21:09:08;13.10;99.90
40287;DHT22;25998;46.604;13.610;2022-10-17T21:12:19;13.00;99.90
40287;DHT22;25998;46.604;13.610;2022-10-17T21:15:30;12.90;99.90
40287;DHT22;25998;46.604;13.610;2022-10-17T21:18:41;12.90;99.90
40287;DHT22;25998;46.604;13.610;2022-10-17T21:21:52;12.80;99.90
40287;DHT22;25998;46.604;13.610;2022-10-17T21:25:03;12.80;99.90